sensor_id;sensor_type;location;lat;lon;timestamp;temperature;humidity
38265;DHT22;24062;47.480;8.768;2022-09-13T00:01:17;14.40;63.10
38265;DHT22;24062;47.480;8.768;2022-09-13T00:03:44;14.40;63.10
38265;DHT22;24062;47.480;8.768;2022-09-13T00:06:14;14.30;63.10
38265;DHT22;24062;47.480;8.768;2022-09-13T00:08:41;14.30;63.50
38265;DHT22;24062;47.480;8.768;2022-09-13T00:11:15;14.30;63.50
38265;DHT22;24062;47.480;8.768;2022-09-13T00:13:43;14.20;63.70
38265;DHT22;24062;47.480;8.768;2022-09-13T00:16:11;14.30;63.80
38265;DHT22;24062;47.480;8.768;2022-09-13T00:18:38;14.20;63.70
38265;DHT22;24062;47.480;8.768;2022-09-13T00:21:07;14.20;63.90
38265;DHT22;24062;47.480;8.768;2022-09-13T00:23:34;14.20;64.30
38265;DHT22;24062;47.480;8.768;2022-09-13T00:26:03;14.20;64.10
38265;DHT22;24062;47.480;8.768;2022-09-13T00:28:31;14.20;64.10
38265;DHT22;24062;47.480;8.768;2022-09-13T00:30:59;14.20;64.10
38265;DHT22;24062;47.480;8.768;2022-09-13T00:33:26;14.20;64.10
38265;DHT22;24062;47.480;8.768;2022-09-13T00:35:53;14.20;64.20
38265;DHT22;24062;47.480;8.768;2022-09-13T00:38:20;14.10;64.10
38265;DHT22;24062;47.480;8.768;2022-09-13T00:40:47;14.10;64.30
38265;DHT22;24062;47.480;8.768;2022-09-13T00:43:17;14.10;64.40
38265;DHT22;24062;47.480;8.768;2022-09-13T00:45:45;14.00;64.40
38265;DHT22;24062;47.480;8.768;2022-09-13T00:48:19;14.00;64.50
38265;DHT22;24062;47.480;8.768;2022-09-13T00:50:49;14.00;64.60
38265;DHT22;24062;47.480;8.768;2022-09-13T00:53:19;14.00;64.70
38265;DHT22;24062;47.480;8.768;2022-09-13T00:55:51;14.00;64.80
38265;DHT22;24062;47.480;8.768;2022-09-13T00:58:21;13.90;64.90
38265;DHT22;24062;47.480;8.768;2022-09-13T01:00:51;13.90;65.80
38265;DHT22;24062;47.480;8.768;2022-09-13T01:03:20;13.90;65.00
38265;DHT22;24062;47.480;8.768;2022-09-13T01:05:52;13.90;65.00
38265;DHT22;24062;47.480;8.768;2022-09-13T01:08:20;13.80;64.90
38265;DHT22;24062;47.480;8.768;2022-09-13T01:10:48;13.80;65.00
38265;DHT22;24062;47.480;8.768;2022-09-13T01:13:18;13.80;65.20
38265;DHT22;24062;47.480;8.768;2022-09-13T01:15:45;13.80;65.40
38265;DHT22;24062;47.480;8.768;2022-09-13T01:18:14;13.70;65.30
38265;DHT22;24062;47.480;8.768;2022-09-13T01:20:52;13.70;65.40
38265;DHT22;24062;47.480;8.768;2022-09-13T01:23:42;13.70;65.60
38265;DHT22;24062;47.480;8.768;2022-09-13T01:26:31;13.70;65.80
38265;DHT22;24062;47.480;8.768;2022-09-13T01:29:29;13.70;65.80
38265;DHT22;24062;47.480;8.768;2022-09-13T01:32:04;13.60;65.90
38265;DHT22;24062;47.480;8.768;2022-09-13T01:34:42;13.60;65.80
38265;DHT22;24062;47.480;8.768;2022-09-13T01:37:38;13.50;65.80
38265;DHT22;24062;47.480;8.768;2022-09-13T01:40:16;13.50;66.00
38265;DHT22;24062;47.480;8.768;2022-09-13T01:42:58;13.70;66.10
38265;DHT22;24062;47.480;8.768;2022-09-13T01:45:35;13.50;65.90
38265;DHT22;24062;47.480;8.768;2022-09-13T01:48:12;13.50;66.00
38265;DHT22;24062;47.480;8.768;2022-09-13T01:50:43;13.50;67.00
38265;DHT22;24062;47.480;8.768;2022-09-13T01:53:20;13.50;66.20
38265;DHT22;24062;47.480;8.768;2022-09-13T01:55:54;13.50;66.40
38265;DHT22;24062;47.480;8.768;2022-09-13T01:58:26;13.40;66.30
38265;DHT22;24062;47.480;8.768;2022-09-13T02:01:01;13.40;66.30
38265;DHT22;24062;47.480;8.768;2022-09-13T02:03:34;13.40;66.50
38265;DHT22;24062;47.480;8.768;2022-09-13T02:06:07;13.40;66.60
38265;DHT22;24062;47.480;8.768;2022-09-13T02:08:40;13.30;66.50
38265;DHT22;24062;47.480;8.768;2022-09-13T02:11:10;13.30;66.70
38265;DHT22;24062;47.480;8.768;2022-09-13T02:13:42;13.30;66.80
38265;DHT22;24062;47.480;8.768;2022-09-13T02:16:14;13.30;67.00
38265;DHT22;24062;47.480;8.768;2022-09-13T02:18:46;13.30;67.10
38265;DHT22;24062;47.480;8.768;2022-09-13T02:21:17;13.30;67.30
38265;DHT22;24062;47.480;8.768;2022-09-13T02:23:49;13.20;67.20
38265;DHT22;24062;47.480;8.768;2022-09-13T02:26:19;13.30;67.40
38265;DHT22;24062;47.480;8.768;2022-09-13T02:28:50;13.20;67.80
38265;DHT22;24062;47.480;8.768;2022-09-13T02:31:21;13.30;68.20
38265;DHT22;24062;47.480;8.768;2022-09-13T02:33:55;13.30;68.30
38265;DHT22;24062;47.480;8.768;2022-09-13T02:36:25;13.40;68.50
38265;DHT22;24062;47.480;8.768;2022-09-13T02:38:56;13.40;68.50
38265;DHT22;24062;47.480;8.768;2022-09-13T02:41:30;13.40;68.40
38265;DHT22;24062;47.480;8.768;2022-09-13T02:44:04;13.30;68.20
38265;DHT22;24062;47.480;8.768;2022-09-13T02:46:43;13.30;68.30
38265;DHT22;24062;47.480;8.768;2022-09-13T02:49:17;13.40;68.70
38265;DHT22;24062;47.480;8.768;2022-09-13T02:51:52;13.30;68.60
38265;DHT22;24062;47.480;8.768;2022-09-13T02:54:24;13.20;68.50
38265;DHT22;24062;47.480;8.768;2022-09-13T02:56:57;13.20;68.40
38265;DHT22;24062;47.480;8.768;2022-09-13T02:59:25;13.20;68.40
38265;DHT22;24062;47.480;8.768;2022-09-13T03:01:54;13.20;68.30
38265;DHT22;24062;47.480;8.768;2022-09-13T03:04:24;13.20;68.30
38265;DHT22;24062;47.480;8.768;2022-09-13T03:06:51;13.10;68.40
38265;DHT22;24062;47.480;8.768;2022-09-13T03:09:18;13.10;68.30
38265;DHT22;24062;47.480;8.768;2022-09-13T03:11:56;13.10;68.40
38265;DHT22;24062;47.480;8.768;2022-09-13T03:14:35;13.10;68.60
38265;DHT22;24062;47.480;8.768;2022-09-13T03:17:14;13.00;68.40
38265;DHT22;24062;47.480;8.768;2022-09-13T03:19:56;13.00;68.40
38265;DHT22;24062;47.480;8.768;2022-09-13T03:25:27;13.00;68.70
38265;DHT22;24062;47.480;8.768;2022-09-13T03:28:04;13.00;69.00
38265;DHT22;24062;47.480;8.768;2022-09-13T03:30:37;13.00;68.90
38265;DHT22;24062;47.480;8.768;2022-09-13T03:33:10;12.90;68.90
38265;DHT22;24062;47.480;8.768;2022-09-13T03:35:44;12.90;69.30
38265;DHT22;24062;47.480;8.768;2022-09-13T03:38:16;13.00;69.80
38265;DHT22;24062;47.480;8.768;2022-09-13T03:40:47;13.10;70.10
38265;DHT22;24062;47.480;8.768;2022-09-13T03:43:17;13.10;70.90
38265;DHT22;24062;47.480;8.768;2022-09-13T03:45:51;13.10;70.10
38265;DHT22;24062;47.480;8.768;2022-09-13T03:48:19;13.10;69.80
38265;DHT22;24062;47.480;8.768;2022-09-13T03:50:48;13.10;69.80
38265;DHT22;24062;47.480;8.768;2022-09-13T03:53:20;13.00;69.60
38265;DHT22;24062;47.480;8.768;2022-09-13T03:55:48;13.00;69.60
38265;DHT22;24062;47.480;8.768;2022-09-13T03:58:17;13.00;69.70
38265;DHT22;24062;47.480;8.768;2022-09-13T04:00:44;12.90;69.70
38265;DHT22;24062;47.480;8.768;2022-09-13T04:03:12;12.90;69.70
38265;DHT22;24062;47.480;8.768;2022-09-13T04:05:39;12.90;69.80
38265;DHT22;24062;47.480;8.768;2022-09-13T04:08:07;12.80;69.70
38265;DHT22;24062;47.480;8.768;2022-09-13T04:10:35;12.80;69.80
38265;DHT22;24062;47.480;8.768;2022-09-13T04:13:02;12.80;70.00
38265;DHT22;24062;47.480;8.768;2022-09-13T04:15:29;12.80;70.00
38265;DHT22;24062;47.480;8.768;2022-09-13T04:17:57;12.70;70.10
38265;DHT22;24062;47.480;8.768;2022-09-13T04:20:24;12.70;70.10
38265;DHT22;24062;47.480;8.768;2022-09-13T04:22:51;12.70;71.10
38265;DHT22;24062;47.480;8.768;2022-09-13T04:25:20;12.80;70.50
38265;DHT22;24062;47.480;8.768;2022-09-13T04:27:47;12.70;70.30
38265;DHT22;24062;47.480;8.768;2022-09-13T04:30:15;12.60;70.10
38265;DHT22;24062;47.480;8.768;2022-09-13T04:32:42;12.60;70.10
38265;DHT22;24062;47.480;8.768;2022-09-13T04:35:10;12.60;70.20
38265;DHT22;24062;47.480;8.768;2022-09-13T04:37:37;12.60;70.20
38265;DHT22;24062;47.480;8.768;2022-09-13T04:40:05;12.60;70.20
38265;DHT22;24062;47.480;8.768;2022-09-13T04:42:34;12.50;70.20
38265;DHT22;24062;47.480;8.768;2022-09-13T04:45:00;12.50;70.20
38265;DHT22;24062;47.480;8.768;2022-09-13T04:47:27;12.50;70.60
38265;DHT22;24062;47.480;8.768;2022-09-13T04:49:54;12.50;70.70
38265;DHT22;24062;47.480;8.768;2022-09-13T04:52:21;12.50;70.70
38265;DHT22;24062;47.480;8.768;2022-09-13T04:54:48;12.50;70.70
38265;DHT22;24062;47.480;8.768;2022-09-13T04:57:15;12.50;70.80
38265;DHT22;24062;47.480;8.768;2022-09-13T04:59:43;12.50;70.70
38265;DHT22;24062;47.480;8.768;2022-09-13T05:02:10;12.50;70.90
38265;DHT22;24062;47.480;8.768;2022-09-13T05:04:37;12.50;71.00
38265;DHT22;24062;47.480;8.768;2022-09-13T05:07:04;12.50;71.10
38265;DHT22;24062;47.480;8.768;2022-09-13T05:09:31;12.50;71.20
38265;DHT22;24062;47.480;8.768;2022-09-13T05:11:58;12.50;71.20
38265;DHT22;24062;47.480;8.768;2022-09-13T05:14:25;12.40;71.20
38265;DHT22;24062;47.480;8.768;2022-09-13T05:16:53;12.40;71.30
38265;DHT22;24062;47.480;8.768;2022-09-13T05:19:20;12.40;71.30
38265;DHT22;24062;47.480;8.768;2022-09-13T05:21:47;12.50;71.60
38265;DHT22;24062;47.480;8.768;2022-09-13T05:24:14;12.50;71.50
38265;DHT22;24062;47.480;8.768;2022-09-13T05:26:41;12.50;71.50
38265;DHT22;24062;47.480;8.768;2022-09-13T05:29:07;12.50;71.50
38265;DHT22;24062;47.480;8.768;2022-09-13T05:31:37;12.60;71.60
38265;DHT22;24062;47.480;8.768;2022-09-13T05:34:07;12.60;71.80
38265;DHT22;24062;47.480;8.768;2022-09-13T05:36:35;12.60;71.90
38265;DHT22;24062;47.480;8.768;2022-09-13T05:39:03;12.70;72.10
38265;DHT22;24062;47.480;8.768;2022-09-13T05:41:30;12.70;72.20
38265;DHT22;24062;47.480;8.768;2022-09-13T05:43:57;12.80;72.40
38265;DHT22;24062;47.480;8.768;2022-09-13T05:46:24;13.00;72.80
38265;DHT22;24062;47.480;8.768;2022-09-13T05:48:51;13.00;72.70
38265;DHT22;24062;47.480;8.768;2022-09-13T05:51:21;13.30;73.10
38265;DHT22;24062;47.480;8.768;2022-09-13T05:53:49;13.30;73.00
38265;DHT22;24062;47.480;8.768;2022-09-13T05:56:19;13.40;73.10
38265;DHT22;24062;47.480;8.768;2022-09-13T05:58:48;13.60;73.20
38265;DHT22;24062;47.480;8.768;2022-09-13T06:01:16;13.70;73.30
38265;DHT22;24062;47.480;8.768;2022-09-13T06:03:46;13.80;73.40
38265;DHT22;24062;47.480;8.768;2022-09-13T06:06:13;14.00;73.60
38265;DHT22;24062;47.480;8.768;2022-09-13T06:08:42;14.10;73.60
38265;DHT22;24062;47.480;8.768;2022-09-13T06:11:11;14.30;73.90
38265;DHT22;24062;47.480;8.768;2022-09-13T06:13:38;14.40;73.90
38265;DHT22;24062;47.480;8.768;2022-09-13T06:16:08;14.60;74.00
38265;DHT22;24062;47.480;8.768;2022-09-13T06:18:36;14.80;74.90
38265;DHT22;24062;47.480;8.768;2022-09-13T06:21:04;14.90;74.10
38265;DHT22;24062;47.480;8.768;2022-09-13T06:23:32;15.10;74.30
38265;DHT22;24062;47.480;8.768;2022-09-13T06:26:02;15.20;74.40
38265;DHT22;24062;47.480;8.768;2022-09-13T06:28:29;15.30;74.50
38265;DHT22;24062;47.480;8.768;2022-09-13T06:31:00;15.40;74.40
38265;DHT22;24062;47.480;8.768;2022-09-13T06:33:27;15.60;74.60
38265;DHT22;24062;47.480;8.768;2022-09-13T06:35:54;15.80;74.60
38265;DHT22;24062;47.480;8.768;2022-09-13T06:38:21;15.90;74.50
38265;DHT22;24062;47.480;8.768;2022-09-13T06:40:57;16.00;74.50
38265;DHT22;24062;47.480;8.768;2022-09-13T06:43:25;16.10;74.50
38265;DHT22;24062;47.480;8.768;2022-09-13T06:45:52;16.20;74.60
38265;DHT22;24062;47.480;8.768;2022-09-13T06:48:19;16.20;74.60
38265;DHT22;24062;47.480;8.768;2022-09-13T06:50:46;16.30;74.90
38265;DHT22;24062;47.480;8.768;2022-09-13T06:53:13;16.50;75.10
38265;DHT22;24062;47.480;8.768;2022-09-13T06:55:40;16.60;75.20
38265;DHT22;24062;47.480;8.768;2022-09-13T06:58:06;16.70;75.30
38265;DHT22;24062;47.480;8.768;2022-09-13T07:00:35;16.90;75.50
38265;DHT22;24062;47.480;8.768;2022-09-13T07:03:01;17.10;75.70
38265;DHT22;24062;47.480;8.768;2022-09-13T07:05:28;17.30;75.90
38265;DHT22;24062;47.480;8.768;2022-09-13T07:07:55;17.50;75.80
38265;DHT22;24062;47.480;8.768;2022-09-13T07:10:22;17.80;75.90
38265;DHT22;24062;47.480;8.768;2022-09-13T07:12:49;18.00;75.80
38265;DHT22;24062;47.480;8.768;2022-09-13T07:15:16;18.30;75.70
38265;DHT22;24062;47.480;8.768;2022-09-13T07:17:44;18.60;75.50
38265;DHT22;24062;47.480;8.768;2022-09-13T07:20:11;18.80;74.90
38265;DHT22;24062;47.480;8.768;2022-09-13T07:22:37;19.00;74.90
38265;DHT22;24062;47.480;8.768;2022-09-13T07:25:05;19.20;74.50
38265;DHT22;24062;47.480;8.768;2022-09-13T07:27:32;19.40;74.00
38265;DHT22;24062;47.480;8.768;2022-09-13T07:29:59;19.60;73.50
38265;DHT22;24062;47.480;8.768;2022-09-13T07:32:26;19.80;73.10
38265;DHT22;24062;47.480;8.768;2022-09-13T07:34:54;20.10;72.70
38265;DHT22;24062;47.480;8.768;2022-09-13T07:37:21;20.20;72.30
38265;DHT22;24062;47.480;8.768;2022-09-13T07:39:48;20.30;72.20
38265;DHT22;24062;47.480;8.768;2022-09-13T07:42:15;20.30;72.30
38265;DHT22;24062;47.480;8.768;2022-09-13T07:44:42;20.20;72.70
38265;DHT22;24062;47.480;8.768;2022-09-13T07:47:09;20.10;73.20
38265;DHT22;24062;47.480;8.768;2022-09-13T07:49:35;20.10;73.40
38265;DHT22;24062;47.480;8.768;2022-09-13T07:52:04;20.10;73.50
38265;DHT22;24062;47.480;8.768;2022-09-13T07:54:31;20.10;73.50
38265;DHT22;24062;47.480;8.768;2022-09-13T07:56:59;20.20;73.60
38265;DHT22;24062;47.480;8.768;2022-09-13T07:59:26;20.20;73.60
38265;DHT22;24062;47.480;8.768;2022-09-13T08:01:52;20.30;73.80
38265;DHT22;24062;47.480;8.768;2022-09-13T08:04:23;20.40;73.80
38265;DHT22;24062;47.480;8.768;2022-09-13T08:06:51;20.50;73.90
38265;DHT22;24062;47.480;8.768;2022-09-13T08:09:19;20.70;74.20
38265;DHT22;24062;47.480;8.768;2022-09-13T08:11:47;20.80;73.60
38265;DHT22;24062;47.480;8.768;2022-09-13T08:14:18;20.90;73.00
38265;DHT22;24062;47.480;8.768;2022-09-13T08:16:46;21.00;72.30
38265;DHT22;24062;47.480;8.768;2022-09-13T08:19:14;21.00;72.50
38265;DHT22;24062;47.480;8.768;2022-09-13T08:21:42;21.10;72.50
38265;DHT22;24062;47.480;8.768;2022-09-13T08:24:13;21.20;72.20
38265;DHT22;24062;47.480;8.768;2022-09-13T08:26:42;21.30;72.00
38265;DHT22;24062;47.480;8.768;2022-09-13T08:29:10;21.40;72.10
38265;DHT22;24062;47.480;8.768;2022-09-13T08:31:37;21.50;72.10
38265;DHT22;24062;47.480;8.768;2022-09-13T08:34:07;21.60;72.10
38265;DHT22;24062;47.480;8.768;2022-09-13T08:36:35;21.80;71.90
38265;DHT22;24062;47.480;8.768;2022-09-13T08:39:02;21.90;71.80
38265;DHT22;24062;47.480;8.768;2022-09-13T08:41:51;22.00;71.70
38265;DHT22;24062;47.480;8.768;2022-09-13T08:44:24;22.10;71.30
38265;DHT22;24062;47.480;8.768;2022-09-13T08:46:54;22.30;71.60
38265;DHT22;24062;47.480;8.768;2022-09-13T08:49:25;22.40;70.90
38265;DHT22;24062;47.480;8.768;2022-09-13T08:51:55;22.50;70.50
38265;DHT22;24062;47.480;8.768;2022-09-13T08:54:23;22.50;69.90
38265;DHT22;24062;47.480;8.768;2022-09-13T08:56:58;22.60;69.50
38265;DHT22;24062;47.480;8.768;2022-09-13T08:59:47;22.70;69.50
38265;DHT22;24062;47.480;8.768;2022-09-13T09:02:25;22.90;69.80
38265;DHT22;24062;47.480;8.768;2022-09-13T09:05:01;23.10;69.70
38265;DHT22;24062;47.480;8.768;2022-09-13T09:07:32;23.30;69.50
38265;DHT22;24062;47.480;8.768;2022-09-13T09:10:04;23.50;69.70
38265;DHT22;24062;47.480;8.768;2022-09-13T09:12:40;23.70;69.60
38265;DHT22;24062;47.480;8.768;2022-09-13T09:15:14;23.80;68.90
38265;DHT22;24062;47.480;8.768;2022-09-13T09:17:48;24.00;68.50
38265;DHT22;24062;47.480;8.768;2022-09-13T09:20:22;24.10;68.10
38265;DHT22;24062;47.480;8.768;2022-09-13T09:22:50;24.20;68.10
38265;DHT22;24062;47.480;8.768;2022-09-13T09:25:20;24.30;68.20
38265;DHT22;24062;47.480;8.768;2022-09-13T09:27:50;24.40;68.10
38265;DHT22;24062;47.480;8.768;2022-09-13T09:30:17;24.60;67.50
38265;DHT22;24062;47.480;8.768;2022-09-13T09:35:43;24.80;66.90
38265;DHT22;24062;47.480;8.768;2022-09-13T09:38:36;25.10;67.10
38265;DHT22;24062;47.480;8.768;2022-09-13T09:41:11;25.20;66.50
38265;DHT22;24062;47.480;8.768;2022-09-13T09:43:44;25.40;66.20
38265;DHT22;24062;47.480;8.768;2022-09-13T09:46:13;25.50;65.60
38265;DHT22;24062;47.480;8.768;2022-09-13T09:48:47;25.50;65.70
38265;DHT22;24062;47.480;8.768;2022-09-13T09:51:17;25.70;65.90
38265;DHT22;24062;47.480;8.768;2022-09-13T09:53:48;25.90;65.70
38265;DHT22;24062;47.480;8.768;2022-09-13T09:56:22;26.00;65.50
38265;DHT22;24062;47.480;8.768;2022-09-13T09:58:51;26.10;65.20
38265;DHT22;24062;47.480;8.768;2022-09-13T10:01:23;26.30;65.10
38265;DHT22;24062;47.480;8.768;2022-09-13T10:03:54;26.30;63.60
38265;DHT22;24062;47.480;8.768;2022-09-13T10:06:24;26.20;63.30
38265;DHT22;24062;47.480;8.768;2022-09-13T10:08:58;26.20;63.40
38265;DHT22;24062;47.480;8.768;2022-09-13T10:11:47;26.30;63.40
38265;DHT22;24062;47.480;8.768;2022-09-13T10:14:35;26.50;63.70
38265;DHT22;24062;47.480;8.768;2022-09-13T10:17:05;26.60;62.70
38265;DHT22;24062;47.480;8.768;2022-09-13T10:19:37;26.80;62.80
38265;DHT22;24062;47.480;8.768;2022-09-13T10:22:09;27.00;62.80
38265;DHT22;24062;47.480;8.768;2022-09-13T10:24:36;27.10;62.30
38265;DHT22;24062;47.480;8.768;2022-09-13T10:27:04;27.20;62.00
38265;DHT22;24062;47.480;8.768;2022-09-13T10:29:46;27.30;62.20
38265;DHT22;24062;47.480;8.768;2022-09-13T10:32:13;27.70;62.30
38265;DHT22;24062;47.480;8.768;2022-09-13T10:34:45;27.80;61.70
38265;DHT22;24062;47.480;8.768;2022-09-13T10:37:16;27.90;61.40
38265;DHT22;24062;47.480;8.768;2022-09-13T10:39:52;28.10;61.00
38265;DHT22;24062;47.480;8.768;2022-09-13T10:42:23;28.20;60.10
38265;DHT22;24062;47.480;8.768;2022-09-13T10:44:54;28.30;60.00
38265;DHT22;24062;47.480;8.768;2022-09-13T10:47:24;28.30;59.90
38265;DHT22;24062;47.480;8.768;2022-09-13T10:49:53;28.50;60.10
38265;DHT22;24062;47.480;8.768;2022-09-13T10:52:32;28.90;60.00
38265;DHT22;24062;47.480;8.768;2022-09-13T10:55:22;29.30;59.30
38265;DHT22;24062;47.480;8.768;2022-09-13T10:57:51;29.50;58.70
38265;DHT22;24062;47.480;8.768;2022-09-13T11:00:21;29.80;58.70
38265;DHT22;24062;47.480;8.768;2022-09-13T11:03:03;30.10;58.50
38265;DHT22;24062;47.480;8.768;2022-09-13T11:05:38;30.40;57.80
38265;DHT22;24062;47.480;8.768;2022-09-13T11:08:20;30.80;57.90
38265;DHT22;24062;47.480;8.768;2022-09-13T11:11:00;31.20;57.30
38265;DHT22;24062;47.480;8.768;2022-09-13T11:13:36;31.40;56.40
38265;DHT22;24062;47.480;8.768;2022-09-13T11:16:19;31.60;56.20
38265;DHT22;24062;47.480;8.768;2022-09-13T11:19:01;31.80;55.90
38265;DHT22;24062;47.480;8.768;2022-09-13T11:21:41;32.00;55.60
38265;DHT22;24062;47.480;8.768;2022-09-13T11:24:35;32.20;55.50
38265;DHT22;24062;47.480;8.768;2022-09-13T11:27:14;32.50;55.00
38265;DHT22;24062;47.480;8.768;2022-09-13T11:33:00;32.30;53.70
38265;DHT22;24062;47.480;8.768;2022-09-13T11:35:40;32.30;53.80
38265;DHT22;24062;47.480;8.768;2022-09-13T11:38:22;32.30;54.10
38265;DHT22;24062;47.480;8.768;2022-09-13T11:40:57;32.50;53.80
38265;DHT22;24062;47.480;8.768;2022-09-13T11:43:51;32.70;53.70
38265;DHT22;24062;47.480;8.768;2022-09-13T11:46:26;33.00;53.70
38265;DHT22;24062;47.480;8.768;2022-09-13T11:52:06;34.00;53.20
38265;DHT22;24062;47.480;8.768;2022-09-13T11:54:46;34.30;52.20
38265;DHT22;24062;47.480;8.768;2022-09-13T11:57:18;34.50;52.50
38265;DHT22;24062;47.480;8.768;2022-09-13T11:59:50;34.70;51.80
38265;DHT22;24062;47.480;8.768;2022-09-13T12:02:24;34.90;51.20
38265;DHT22;24062;47.480;8.768;2022-09-13T12:04:57;34.90;50.40
38265;DHT22;24062;47.480;8.768;2022-09-13T12:07:32;34.80;50.40
38265;DHT22;24062;47.480;8.768;2022-09-13T12:10:05;34.90;50.40
38265;DHT22;24062;47.480;8.768;2022-09-13T12:12:34;35.10;50.00
38265;DHT22;24062;47.480;8.768;2022-09-13T12:15:05;34.90;49.20
38265;DHT22;24062;47.480;8.768;2022-09-13T12:17:37;35.10;49.20
38265;DHT22;24062;47.480;8.768;2022-09-13T12:20:15;35.30;49.30
38265;DHT22;24062;47.480;8.768;2022-09-13T12:22:44;35.20;47.70
38265;DHT22;24062;47.480;8.768;2022-09-13T12:25:18;35.00;47.50
38265;DHT22;24062;47.480;8.768;2022-09-13T12:27:51;34.80;47.40
38265;DHT22;24062;47.480;8.768;2022-09-13T12:30:21;34.50;47.10
38265;DHT22;24062;47.480;8.768;2022-09-13T12:32:51;34.60;47.50
38265;DHT22;24062;47.480;8.768;2022-09-13T12:35:24;34.70;47.50
38265;DHT22;24062;47.480;8.768;2022-09-13T12:38:10;34.80;47.30
38265;DHT22;24062;47.480;8.768;2022-09-13T12:40:57;34.90;47.10
38265;DHT22;24062;47.480;8.768;2022-09-13T12:43:41;35.10;47.50
38265;DHT22;24062;47.480;8.768;2022-09-13T12:46:25;35.30;47.40
38265;DHT22;24062;47.480;8.768;2022-09-13T12:49:20;35.60;47.60
38265;DHT22;24062;47.480;8.768;2022-09-13T12:55:09;36.90;48.30
38265;DHT22;24062;47.480;8.768;2022-09-13T12:57:45;37.50;47.40
38265;DHT22;24062;47.480;8.768;2022-09-13T13:00:19;37.90;47.50
38265;DHT22;24062;47.480;8.768;2022-09-13T13:03:01;38.70;47.90
38265;DHT22;24062;47.480;8.768;2022-09-13T13:05:38;39.80;47.20
38265;DHT22;24062;47.480;8.768;2022-09-13T13:08:24;40.90;47.00
38265;DHT22;24062;47.480;8.768;2022-09-13T13:11:01;42.00;46.40
38265;DHT22;24062;47.480;8.768;2022-09-13T13:13:33;43.00;45.00
38265;DHT22;24062;47.480;8.768;2022-09-13T13:16:04;43.60;43.80
38265;DHT22;24062;47.480;8.768;2022-09-13T13:18:43;43.50;42.40
38265;DHT22;24062;47.480;8.768;2022-09-13T13:21:35;43.00;41.40
38265;DHT22;24062;47.480;8.768;2022-09-13T13:24:41;42.30;40.80
38265;DHT22;24062;47.480;8.768;2022-09-13T13:27:36;41.70;40.80
38265;DHT22;24062;47.480;8.768;2022-09-13T13:33:25;40.40;40.40
38265;DHT22;24062;47.480;8.768;2022-09-13T13:35:52;39.70;40.10
38265;DHT22;24062;47.480;8.768;2022-09-13T13:38:48;39.10;40.30
38265;DHT22;24062;47.480;8.768;2022-09-13T13:41:37;38.70;40.50
38265;DHT22;24062;47.480;8.768;2022-09-13T13:50:27;37.80;41.20
38265;DHT22;24062;47.480;8.768;2022-09-13T13:52:56;37.90;41.40
38265;DHT22;24062;47.480;8.768;2022-09-13T13:55:42;38.10;41.60
38265;DHT22;24062;47.480;8.768;2022-09-13T13:58:29;38.20;41.30
38265;DHT22;24062;47.480;8.768;2022-09-13T14:00:59;37.90;41.00
38265;DHT22;24062;47.480;8.768;2022-09-13T14:03:48;37.60;41.20
38265;DHT22;24062;47.480;8.768;2022-09-13T14:06:18;37.40;41.40
38265;DHT22;24062;47.480;8.768;2022-09-13T14:08:59;37.30;41.60
38265;DHT22;24062;47.480;8.768;2022-09-13T14:11:39;37.00;41.40
38265;DHT22;24062;47.480;8.768;2022-09-13T14:14:23;36.70;41.80
38265;DHT22;24062;47.480;8.768;2022-09-13T14:17:01;36.50;41.90
38265;DHT22;24062;47.480;8.768;2022-09-13T14:19:39;36.20;42.00
38265;DHT22;24062;47.480;8.768;2022-09-13T14:22:13;35.90;41.70
38265;DHT22;24062;47.480;8.768;2022-09-13T14:24:42;35.50;42.00
38265;DHT22;24062;47.480;8.768;2022-09-13T14:27:16;35.10;42.00
38265;DHT22;24062;47.480;8.768;2022-09-13T14:29:46;34.90;42.60
38265;DHT22;24062;47.480;8.768;2022-09-13T14:32:17;34.90;42.80
38265;DHT22;24062;47.480;8.768;2022-09-13T14:34:54;34.80;43.20
38265;DHT22;24062;47.480;8.768;2022-09-13T14:37:25;34.90;43.40
38265;DHT22;24062;47.480;8.768;2022-09-13T14:39:57;34.90;43.40
38265;DHT22;24062;47.480;8.768;2022-09-13T14:42:25;35.10;43.70
38265;DHT22;24062;47.480;8.768;2022-09-13T14:44:54;35.30;43.70
38265;DHT22;24062;47.480;8.768;2022-09-13T14:47:27;35.40;43.50
38265;DHT22;24062;47.480;8.768;2022-09-13T14:49:59;35.40;43.60
38265;DHT22;24062;47.480;8.768;2022-09-13T14:52:30;35.50;43.40
38265;DHT22;24062;47.480;8.768;2022-09-13T14:55:00;35.40;43.60
38265;DHT22;24062;47.480;8.768;2022-09-13T14:57:30;35.60;43.70
38265;DHT22;24062;47.480;8.768;2022-09-13T15:00:03;35.60;43.30
38265;DHT22;24062;47.480;8.768;2022-09-13T15:02:36;35.40;42.90
38265;DHT22;24062;47.480;8.768;2022-09-13T15:05:06;35.50;43.20
38265;DHT22;24062;47.480;8.768;2022-09-13T15:07:36;35.50;42.80
38265;DHT22;24062;47.480;8.768;2022-09-13T15:10:15;35.30;42.70
38265;DHT22;24062;47.480;8.768;2022-09-13T15:12:50;35.10;42.60
38265;DHT22;24062;47.480;8.768;2022-09-13T15:15:32;34.70;42.50
38265;DHT22;24062;47.480;8.768;2022-09-13T15:18:02;34.50;42.80
38265;DHT22;24062;47.480;8.768;2022-09-13T15:20:46;34.20;42.70
38265;DHT22;24062;47.480;8.768;2022-09-13T15:23:16;33.80;43.50
38265;DHT22;24062;47.480;8.768;2022-09-13T15:25:49;33.40;42.90
38265;DHT22;24062;47.480;8.768;2022-09-13T15:28:22;33.20;43.30
38265;DHT22;24062;47.480;8.768;2022-09-13T15:30:51;33.00;43.60
38265;DHT22;24062;47.480;8.768;2022-09-13T15:33:23;32.90;43.90
38265;DHT22;24062;47.480;8.768;2022-09-13T15:35:51;32.90;43.90
38265;DHT22;24062;47.480;8.768;2022-09-13T15:38:29;32.80;43.90
38265;DHT22;24062;47.480;8.768;2022-09-13T15:40:59;32.70;44.40
38265;DHT22;24062;47.480;8.768;2022-09-13T15:43:27;32.60;44.50
38265;DHT22;24062;47.480;8.768;2022-09-13T15:45:57;32.40;44.70
38265;DHT22;24062;47.480;8.768;2022-09-13T15:48:27;32.20;45.20
38265;DHT22;24062;47.480;8.768;2022-09-13T15:51:07;32.10;45.70
38265;DHT22;24062;47.480;8.768;2022-09-13T15:53:35;31.90;46.20
38265;DHT22;24062;47.480;8.768;2022-09-13T15:56:04;31.70;46.40
38265;DHT22;24062;47.480;8.768;2022-09-13T15:58:33;31.50;46.60
38265;DHT22;24062;47.480;8.768;2022-09-13T16:01:02;31.20;47.00
38265;DHT22;24062;47.480;8.768;2022-09-13T16:03:30;30.90;47.50
38265;DHT22;24062;47.480;8.768;2022-09-13T16:05:57;30.70;48.10
38265;DHT22;24062;47.480;8.768;2022-09-13T16:08:24;30.60;48.30
38265;DHT22;24062;47.480;8.768;2022-09-13T16:10:51;30.20;48.40
38265;DHT22;24062;47.480;8.768;2022-09-13T16:13:18;29.90;48.90
38265;DHT22;24062;47.480;8.768;2022-09-13T16:15:45;29.70;49.40
38265;DHT22;24062;47.480;8.768;2022-09-13T16:18:13;29.50;50.00
38265;DHT22;24062;47.480;8.768;2022-09-13T16:20:41;29.40;50.40
38265;DHT22;24062;47.480;8.768;2022-09-13T16:23:08;29.30;50.60
38265;DHT22;24062;47.480;8.768;2022-09-13T16:25:35;29.20;51.00